sensor_id;sensor_type;location;lat;lon;timestamp;pressure;altitude;pressure_sealevel;temperature
5571;BMP180;2808;51.240;6.794;2023-06-26T00:01:35;100857.00;;;24.50
5571;BMP180;2808;51.240;6.794;2023-06-26T00:04:05;100861.00;;;24.50
5571;BMP180;2808;51.240;6.794;2023-06-26T00:06:32;100858.00;;;24.50
5571;BMP180;2808;51.240;6.794;2023-06-26T00:09:00;100852.00;;;24.40
5571;BMP180;2808;51.240;6.794;2023-06-26T00:11:28;100852.00;;;24.30
5571;BMP180;2808;51.240;6.794;2023-06-26T00:13:59;100854.00;;;24.20
5571;BMP180;2808;51.240;6.794;2023-06-26T00:16:28;100859.00;;;24.20
5571;BMP180;2808;51.240;6.794;2023-06-26T00:18:57;100858.00;;;24.20
5571;BMP180;2808;51.240;6.794;2023-06-26T00:21:25;100856.00;;;24.10
5571;BMP180;2808;51.240;6.794;2023-06-26T00:23:53;100862.00;;;24.00
5571;BMP180;2808;51.240;6.794;2023-06-26T00:26:20;100859.00;;;24.00
5571;BMP180;2808;51.240;6.794;2023-06-26T00:28:47;100858.00;;;24.00
5571;BMP180;2808;51.240;6.794;2023-06-26T00:31:15;100854.00;;;24.00
5571;BMP180;2808;51.240;6.794;2023-06-26T00:33:44;100858.00;;;24.00
5571;BMP180;2808;51.240;6.794;2023-06-26T00:36:11;100854.00;;;23.90
5571;BMP180;2808;51.240;6.794;2023-06-26T00:38:39;100852.00;;;23.90
5571;BMP180;2808;51.240;6.794;2023-06-26T00:41:07;100859.00;;;23.90
5571;BMP180;2808;51.240;6.794;2023-06-26T00:43:38;100854.00;;;23.80
5571;BMP180;2808;51.240;6.794;2023-06-26T00:46:09;100849.00;;;23.80
5571;BMP180;2808;51.240;6.794;2023-06-26T00:48:37;100851.00;;;23.70
5571;BMP180;2808;51.240;6.794;2023-06-26T00:51:06;100848.00;;;23.60
5571;BMP180;2808;51.240;6.794;2023-06-26T00:53:34;100851.00;;;23.50
5571;BMP180;2808;51.240;6.794;2023-06-26T00:56:03;100854.00;;;23.50
5571;BMP180;2808;51.240;6.794;2023-06-26T00:58:30;100848.00;;;23.50
5571;BMP180;2808;51.240;6.794;2023-06-26T01:00:58;100855.00;;;23.60
5571;BMP180;2808;51.240;6.794;2023-06-26T01:03:26;100851.00;;;23.60
5571;BMP180;2808;51.240;6.794;2023-06-26T01:05:55;100837.00;;;23.60
5571;BMP180;2808;51.240;6.794;2023-06-26T01:08:25;100848.00;;;23.60
5571;BMP180;2808;51.240;6.794;2023-06-26T01:10:53;100838.00;;;23.50
5571;BMP180;2808;51.240;6.794;2023-06-26T01:13:21;100836.00;;;23.50
5571;BMP180;2808;51.240;6.794;2023-06-26T01:15:51;100824.00;;;23.50
5571;BMP180;2808;51.240;6.794;2023-06-26T01:18:19;100833.00;;;23.50
5571;BMP180;2808;51.240;6.794;2023-06-26T01:20:48;100827.00;;;23.40
5571;BMP180;2808;51.240;6.794;2023-06-26T01:23:17;100825.00;;;23.40
5571;BMP180;2808;51.240;6.794;2023-06-26T01:26:05;100820.00;;;23.40
5571;BMP180;2808;51.240;6.794;2023-06-26T01:28:35;100824.00;;;23.40
5571;BMP180;2808;51.240;6.794;2023-06-26T01:31:06;100824.00;;;23.40
5571;BMP180;2808;51.240;6.794;2023-06-26T01:33:34;100822.00;;;23.40
5571;BMP180;2808;51.240;6.794;2023-06-26T01:36:02;100820.00;;;23.30
5571;BMP180;2808;51.240;6.794;2023-06-26T01:38:30;100811.00;;;23.20
5571;BMP180;2808;51.240;6.794;2023-06-26T01:40:57;100813.00;;;23.20
5571;BMP180;2808;51.240;6.794;2023-06-26T01:43:31;100813.00;;;23.20
5571;BMP180;2808;51.240;6.794;2023-06-26T01:46:04;100819.00;;;23.20
5571;BMP180;2808;51.240;6.794;2023-06-26T01:48:34;100816.00;;;23.20
5571;BMP180;2808;51.240;6.794;2023-06-26T01:51:06;100814.00;;;23.20
5571;BMP180;2808;51.240;6.794;2023-06-26T01:53:38;100819.00;;;23.20
5571;BMP180;2808;51.240;6.794;2023-06-26T01:56:08;100815.00;;;23.20
5571;BMP180;2808;51.240;6.794;2023-06-26T01:58:43;100822.00;;;23.20
5571;BMP180;2808;51.240;6.794;2023-06-26T02:01:10;100822.00;;;23.10
5571;BMP180;2808;51.240;6.794;2023-06-26T02:03:38;100827.00;;;23.20
5571;BMP180;2808;51.240;6.794;2023-06-26T02:06:06;100829.00;;;23.20
5571;BMP180;2808;51.240;6.794;2023-06-26T02:08:33;100833.00;;;23.20
5571;BMP180;2808;51.240;6.794;2023-06-26T02:11:00;100829.00;;;23.20
5571;BMP180;2808;51.240;6.794;2023-06-26T02:13:28;100827.00;;;23.20
5571;BMP180;2808;51.240;6.794;2023-06-26T02:15:56;100827.00;;;23.20
5571;BMP180;2808;51.240;6.794;2023-06-26T02:18:24;100843.00;;;23.20
5571;BMP180;2808;51.240;6.794;2023-06-26T02:20:51;100839.00;;;23.20
5571;BMP180;2808;51.240;6.794;2023-06-26T02:23:19;100835.00;;;23.20
5571;BMP180;2808;51.240;6.794;2023-06-26T02:25:46;100832.00;;;23.20
5571;BMP180;2808;51.240;6.794;2023-06-26T02:28:13;100833.00;;;23.20
5571;BMP180;2808;51.240;6.794;2023-06-26T02:30:41;100837.00;;;23.10
5571;BMP180;2808;51.240;6.794;2023-06-26T02:33:10;100835.00;;;23.10
5571;BMP180;2808;51.240;6.794;2023-06-26T02:35:37;100838.00;;;23.10
5571;BMP180;2808;51.240;6.794;2023-06-26T02:38:04;100851.00;;;23.00
5571;BMP180;2808;51.240;6.794;2023-06-26T02:40:32;100861.00;;;23.10
5571;BMP180;2808;51.240;6.794;2023-06-26T02:42:59;100863.00;;;23.10
5571;BMP180;2808;51.240;6.794;2023-06-26T02:45:27;100855.00;;;23.10
5571;BMP180;2808;51.240;6.794;2023-06-26T02:47:54;100856.00;;;23.10
5571;BMP180;2808;51.240;6.794;2023-06-26T02:50:26;100862.00;;;23.10
5571;BMP180;2808;51.240;6.794;2023-06-26T02:52:53;100863.00;;;23.10
5571;BMP180;2808;51.240;6.794;2023-06-26T02:55:21;100866.00;;;23.10
5571;BMP180;2808;51.240;6.794;2023-06-26T02:57:48;100870.00;;;23.20
5571;BMP180;2808;51.240;6.794;2023-06-26T03:00:16;100878.00;;;23.20
5571;BMP180;2808;51.240;6.794;2023-06-26T03:02:43;100874.00;;;23.10
5571;BMP180;2808;51.240;6.794;2023-06-26T03:05:11;100876.00;;;23.10
5571;BMP180;2808;51.240;6.794;2023-06-26T03:07:40;100883.00;;;23.10
5571;BMP180;2808;51.240;6.794;2023-06-26T03:10:08;100890.00;;;23.10
5571;BMP180;2808;51.240;6.794;2023-06-26T03:12:35;100891.00;;;23.10
5571;BMP180;2808;51.240;6.794;2023-06-26T03:15:03;100908.00;;;23.10
5571;BMP180;2808;51.240;6.794;2023-06-26T03:17:30;100893.00;;;23.10
5571;BMP180;2808;51.240;6.794;2023-06-26T03:19:58;100890.00;;;23.10
5571;BMP180;2808;51.240;6.794;2023-06-26T03:22:25;100898.00;;;23.10
5571;BMP180;2808;51.240;6.794;2023-06-26T03:24:54;100893.00;;;23.10
5571;BMP180;2808;51.240;6.794;2023-06-26T03:27:21;100889.00;;;23.10
5571;BMP180;2808;51.240;6.794;2023-06-26T03:29:49;100898.00;;;23.10
5571;BMP180;2808;51.240;6.794;2023-06-26T03:32:16;100898.00;;;23.10
5571;BMP180;2808;51.240;6.794;2023-06-26T03:34:43;100901.00;;;23.10
5571;BMP180;2808;51.240;6.794;2023-06-26T03:37:11;100894.00;;;23.20
5571;BMP180;2808;51.240;6.794;2023-06-26T03:39:38;100896.00;;;23.20
5571;BMP180;2808;51.240;6.794;2023-06-26T03:42:07;100902.00;;;23.30
5571;BMP180;2808;51.240;6.794;2023-06-26T03:44:35;100898.00;;;23.40
5571;BMP180;2808;51.240;6.794;2023-06-26T03:47:02;100902.00;;;23.40
5571;BMP180;2808;51.240;6.794;2023-06-26T03:49:30;100910.00;;;23.50
5571;BMP180;2808;51.240;6.794;2023-06-26T03:51:57;100907.00;;;23.40
5571;BMP180;2808;51.240;6.794;2023-06-26T03:54:24;100904.00;;;23.50
5571;BMP180;2808;51.240;6.794;2023-06-26T03:56:52;100912.00;;;23.70
5571;BMP180;2808;51.240;6.794;2023-06-26T03:59:20;100913.00;;;23.70
5571;BMP180;2808;51.240;6.794;2023-06-26T04:01:51;100912.00;;;23.90
5571;BMP180;2808;51.240;6.794;2023-06-26T04:04:19;100912.00;;;23.90
5571;BMP180;2808;51.240;6.794;2023-06-26T04:06:46;100925.00;;;23.90
5571;BMP180;2808;51.240;6.794;2023-06-26T04:09:13;100925.00;;;24.00
5571;BMP180;2808;51.240;6.794;2023-06-26T04:11:41;100928.00;;;24.10
5571;BMP180;2808;51.240;6.794;2023-06-26T04:14:11;100923.00;;;24.20
5571;BMP180;2808;51.240;6.794;2023-06-26T04:16:42;100929.00;;;24.40
5571;BMP180;2808;51.240;6.794;2023-06-26T04:19:09;100932.00;;;24.60
5571;BMP180;2808;51.240;6.794;2023-06-26T04:21:37;100935.00;;;24.80
5571;BMP180;2808;51.240;6.794;2023-06-26T04:24:05;100941.00;;;25.00
5571;BMP180;2808;51.240;6.794;2023-06-26T04:26:32;100934.00;;;25.20
5571;BMP180;2808;51.240;6.794;2023-06-26T04:29:00;100936.00;;;25.50
5571;BMP180;2808;51.240;6.794;2023-06-26T04:31:28;100944.00;;;25.60
5571;BMP180;2808;51.240;6.794;2023-06-26T04:33:56;100938.00;;;25.80
5571;BMP180;2808;51.240;6.794;2023-06-26T04:36:25;100941.00;;;26.00
5571;BMP180;2808;51.240;6.794;2023-06-26T04:38:54;100951.00;;;26.20
5571;BMP180;2808;51.240;6.794;2023-06-26T04:41:21;100941.00;;;26.20
5571;BMP180;2808;51.240;6.794;2023-06-26T04:43:49;100949.00;;;26.10
5571;BMP180;2808;51.240;6.794;2023-06-26T04:46:16;100951.00;;;26.20
5571;BMP180;2808;51.240;6.794;2023-06-26T04:48:44;100951.00;;;26.20
5571;BMP180;2808;51.240;6.794;2023-06-26T04:51:13;100949.00;;;26.30
5571;BMP180;2808;51.240;6.794;2023-06-26T04:53:40;100950.00;;;26.60
5571;BMP180;2808;51.240;6.794;2023-06-26T04:56:07;100949.00;;;26.80
5571;BMP180;2808;51.240;6.794;2023-06-26T04:58:35;100957.00;;;27.00
5571;BMP180;2808;51.240;6.794;2023-06-26T05:01:02;100951.00;;;26.90
5571;BMP180;2808;51.240;6.794;2023-06-26T05:03:33;100960.00;;;27.30
5571;BMP180;2808;51.240;6.794;2023-06-26T05:06:01;100959.00;;;27.60
5571;BMP180;2808;51.240;6.794;2023-06-26T05:08:30;100960.00;;;27.60
5571;BMP180;2808;51.240;6.794;2023-06-26T05:10:58;100959.00;;;27.80
5571;BMP180;2808;51.240;6.794;2023-06-26T05:13:25;100960.00;;;28.00
5571;BMP180;2808;51.240;6.794;2023-06-26T05:15:53;100969.00;;;27.80
5571;BMP180;2808;51.240;6.794;2023-06-26T05:18:20;100975.00;;;27.20
5571;BMP180;2808;51.240;6.794;2023-06-26T05:20:48;100976.00;;;26.70
5571;BMP180;2808;51.240;6.794;2023-06-26T05:23:16;100983.00;;;26.70
5571;BMP180;2808;51.240;6.794;2023-06-26T05:25:46;100983.00;;;26.40
5571;BMP180;2808;51.240;6.794;2023-06-26T05:28:14;100989.00;;;26.10
5571;BMP180;2808;51.240;6.794;2023-06-26T05:30:42;100997.00;;;25.90
5571;BMP180;2808;51.240;6.794;2023-06-26T05:33:11;100998.00;;;25.70
5571;BMP180;2808;51.240;6.794;2023-06-26T05:35:39;100997.00;;;25.70
5571;BMP180;2808;51.240;6.794;2023-06-26T05:38:08;101003.00;;;25.70
5571;BMP180;2808;51.240;6.794;2023-06-26T05:40:36;101000.00;;;25.80
5571;BMP180;2808;51.240;6.794;2023-06-26T05:43:08;101002.00;;;26.80
5571;BMP180;2808;51.240;6.794;2023-06-26T05:45:36;100994.00;;;28.10
5571;BMP180;2808;51.240;6.794;2023-06-26T05:48:03;101011.00;;;28.80
5571;BMP180;2808;51.240;6.794;2023-06-26T05:50:31;101006.00;;;28.40
5571;BMP180;2808;51.240;6.794;2023-06-26T05:53:00;101005.00;;;27.70
5571;BMP180;2808;51.240;6.794;2023-06-26T05:55:29;101002.00;;;27.00
5571;BMP180;2808;51.240;6.794;2023-06-26T05:57:58;101014.00;;;26.60
5571;BMP180;2808;51.240;6.794;2023-06-26T06:00:29;100995.00;;;26.50
5571;BMP180;2808;51.240;6.794;2023-06-26T06:02:57;101001.00;;;27.60
5571;BMP180;2808;51.240;6.794;2023-06-26T06:05:24;101002.00;;;28.40
5571;BMP180;2808;51.240;6.794;2023-06-26T06:07:51;100999.00;;;28.70
5571;BMP180;2808;51.240;6.794;2023-06-26T06:10:19;101009.00;;;29.30
5571;BMP180;2808;51.240;6.794;2023-06-26T06:12:46;101013.00;;;29.10
5571;BMP180;2808;51.240;6.794;2023-06-26T06:15:14;101020.00;;;28.40
5571;BMP180;2808;51.240;6.794;2023-06-26T06:17:43;101032.00;;;27.70
5571;BMP180;2808;51.240;6.794;2023-06-26T06:20:11;101030.00;;;27.10
5571;BMP180;2808;51.240;6.794;2023-06-26T06:22:38;101027.00;;;26.60
5571;BMP180;2808;51.240;6.794;2023-06-26T06:25:06;101026.00;;;26.30
5571;BMP180;2808;51.240;6.794;2023-06-26T06:27:34;101042.00;;;26.60
5571;BMP180;2808;51.240;6.794;2023-06-26T06:30:01;101045.00;;;26.70
5571;BMP180;2808;51.240;6.794;2023-06-26T06:32:29;101050.00;;;27.20
5571;BMP180;2808;51.240;6.794;2023-06-26T06:34:58;101050.00;;;27.70
5571;BMP180;2808;51.240;6.794;2023-06-26T06:37:28;101049.00;;;28.10
5571;BMP180;2808;51.240;6.794;2023-06-26T06:39:57;101054.00;;;28.80
5571;BMP180;2808;51.240;6.794;2023-06-26T06:42:25;101058.00;;;29.40
5571;BMP180;2808;51.240;6.794;2023-06-26T06:44:52;101047.00;;;29.90
5571;BMP180;2808;51.240;6.794;2023-06-26T06:47:20;101056.00;;;30.30
5571;BMP180;2808;51.240;6.794;2023-06-26T06:49:47;101060.00;;;30.60
5571;BMP180;2808;51.240;6.794;2023-06-26T06:52:16;101070.00;;;30.80
5571;BMP180;2808;51.240;6.794;2023-06-26T06:54:53;101068.00;;;31.10
5571;BMP180;2808;51.240;6.794;2023-06-26T06:57:21;101067.00;;;31.30
5571;BMP180;2808;51.240;6.794;2023-06-26T06:59:48;101075.00;;;31.70
5571;BMP180;2808;51.240;6.794;2023-06-26T07:02:17;101078.00;;;31.80
5571;BMP180;2808;51.240;6.794;2023-06-26T07:04:44;101084.00;;;31.50
5571;BMP180;2808;51.240;6.794;2023-06-26T07:07:12;101092.00;;;31.10
5571;BMP180;2808;51.240;6.794;2023-06-26T07:09:42;101096.00;;;30.50
5571;BMP180;2808;51.240;6.794;2023-06-26T07:12:09;101100.00;;;29.80
5571;BMP180;2808;51.240;6.794;2023-06-26T07:14:37;101105.00;;;29.60
5571;BMP180;2808;51.240;6.794;2023-06-26T07:17:04;101095.00;;;29.60
5571;BMP180;2808;51.240;6.794;2023-06-26T07:19:31;101103.00;;;29.80
5571;BMP180;2808;51.240;6.794;2023-06-26T07:21:59;101085.00;;;29.90
5571;BMP180;2808;51.240;6.794;2023-06-26T07:24:26;101102.00;;;29.90
5571;BMP180;2808;51.240;6.794;2023-06-26T07:26:55;101100.00;;;30.20
5571;BMP180;2808;51.240;6.794;2023-06-26T07:29:22;101085.00;;;30.20
5571;BMP180;2808;51.240;6.794;2023-06-26T07:31:50;101091.00;;;30.30
5571;BMP180;2808;51.240;6.794;2023-06-26T07:34:17;101088.00;;;30.70
5571;BMP180;2808;51.240;6.794;2023-06-26T07:36:44;101095.00;;;31.10
5571;BMP180;2808;51.240;6.794;2023-06-26T07:39:12;101087.00;;;31.40
5571;BMP180;2808;51.240;6.794;2023-06-26T07:41:39;101093.00;;;31.50
5571;BMP180;2808;51.240;6.794;2023-06-26T07:44:08;101092.00;;;31.60
5571;BMP180;2808;51.240;6.794;2023-06-26T07:46:35;101103.00;;;31.60
5571;BMP180;2808;51.240;6.794;2023-06-26T07:49:03;101107.00;;;32.00
5571;BMP180;2808;51.240;6.794;2023-06-26T07:51:32;101111.00;;;32.30
5571;BMP180;2808;51.240;6.794;2023-06-26T07:54:00;101119.00;;;32.40
5571;BMP180;2808;51.240;6.794;2023-06-26T07:56:27;101115.00;;;32.50
5571;BMP180;2808;51.240;6.794;2023-06-26T07:58:54;101120.00;;;32.70
5571;BMP180;2808;51.240;6.794;2023-06-26T08:01:24;101124.00;;;32.30
5571;BMP180;2808;51.240;6.794;2023-06-26T08:03:52;101134.00;;;31.60
5571;BMP180;2808;51.240;6.794;2023-06-26T08:06:20;101125.00;;;30.80
5571;BMP180;2808;51.240;6.794;2023-06-26T08:08:48;101139.00;;;29.90
5571;BMP180;2808;51.240;6.794;2023-06-26T08:11:15;101134.00;;;29.60
5571;BMP180;2808;51.240;6.794;2023-06-26T08:13:43;101135.00;;;29.70
5571;BMP180;2808;51.240;6.794;2023-06-26T08:16:10;101135.00;;;29.80
5571;BMP180;2808;51.240;6.794;2023-06-26T08:18:39;101140.00;;;29.80
5571;BMP180;2808;51.240;6.794;2023-06-26T08:21:06;101142.00;;;29.60
5571;BMP180;2808;51.240;6.794;2023-06-26T08:23:35;101147.00;;;29.40
5571;BMP180;2808;51.240;6.794;2023-06-26T08:26:03;101144.00;;;29.10
5571;BMP180;2808;51.240;6.794;2023-06-26T08:28:30;101153.00;;;28.80
5571;BMP180;2808;51.240;6.794;2023-06-26T08:30:57;101160.00;;;28.90
5571;BMP180;2808;51.240;6.794;2023-06-26T08:33:25;101151.00;;;28.90
5571;BMP180;2808;51.240;6.794;2023-06-26T08:35:54;101156.00;;;28.70
5571;BMP180;2808;51.240;6.794;2023-06-26T08:38:22;101164.00;;;28.40
5571;BMP180;2808;51.240;6.794;2023-06-26T08:40:49;101167.00;;;28.00
5571;BMP180;2808;51.240;6.794;2023-06-26T08:43:17;101173.00;;;27.60
5571;BMP180;2808;51.240;6.794;2023-06-26T08:45:45;101174.00;;;27.70
5571;BMP180;2808;51.240;6.794;2023-06-26T08:48:14;101166.00;;;28.00
5571;BMP180;2808;51.240;6.794;2023-06-26T08:50:42;101177.00;;;28.20
5571;BMP180;2808;51.240;6.794;2023-06-26T08:53:17;101180.00;;;28.50
5571;BMP180;2808;51.240;6.794;2023-06-26T08:55:47;101165.00;;;28.50
5571;BMP180;2808;51.240;6.794;2023-06-26T08:58:16;101176.00;;;28.70
5571;BMP180;2808;51.240;6.794;2023-06-26T09:00:43;101186.00;;;28.80
5571;BMP180;2808;51.240;6.794;2023-06-26T09:03:12;101185.00;;;28.70
5571;BMP180;2808;51.240;6.794;2023-06-26T09:05:40;101175.00;;;28.90
5571;BMP180;2808;51.240;6.794;2023-06-26T09:08:07;101180.00;;;29.10
5571;BMP180;2808;51.240;6.794;2023-06-26T09:10:37;101178.00;;;29.30
5571;BMP180;2808;51.240;6.794;2023-06-26T09:13:04;101189.00;;;29.30
5571;BMP180;2808;51.240;6.794;2023-06-26T09:15:38;101174.00;;;29.20
5571;BMP180;2808;51.240;6.794;2023-06-26T09:18:06;101165.00;;;29.00
5571;BMP180;2808;51.240;6.794;2023-06-26T09:20:34;101173.00;;;28.80
5571;BMP180;2808;51.240;6.794;2023-06-26T09:23:02;101172.00;;;28.30
5571;BMP180;2808;51.240;6.794;2023-06-26T09:25:29;101180.00;;;28.10
5571;BMP180;2808;51.240;6.794;2023-06-26T09:27:58;101180.00;;;28.30
5571;BMP180;2808;51.240;6.794;2023-06-26T09:30:26;101172.00;;;28.40
5571;BMP180;2808;51.240;6.794;2023-06-26T09:32:53;101177.00;;;28.70
5571;BMP180;2808;51.240;6.794;2023-06-26T09:35:21;101185.00;;;28.60
5571;BMP180;2808;51.240;6.794;2023-06-26T09:37:49;101185.00;;;28.70
5571;BMP180;2808;51.240;6.794;2023-06-26T09:40:16;101193.00;;;28.80
5571;BMP180;2808;51.240;6.794;2023-06-26T09:42:44;101184.00;;;28.90
5571;BMP180;2808;51.240;6.794;2023-06-26T09:45:20;101192.00;;;29.20
5571;BMP180;2808;51.240;6.794;2023-06-26T09:47:47;101185.00;;;29.20
5571;BMP180;2808;51.240;6.794;2023-06-26T09:50:22;101184.00;;;29.00
5571;BMP180;2808;51.240;6.794;2023-06-26T09:52:51;101186.00;;;28.60
5571;BMP180;2808;51.240;6.794;2023-06-26T09:55:20;101193.00;;;28.40
5571;BMP180;2808;51.240;6.794;2023-06-26T09:57:49;101184.00;;;28.50
5571;BMP180;2808;51.240;6.794;2023-06-26T10:00:19;101198.00;;;28.50
5571;BMP180;2808;51.240;6.794;2023-06-26T10:02:49;101205.00;;;28.50
5571;BMP180;2808;51.240;6.794;2023-06-26T10:05:17;101198.00;;;28.50
5571;BMP180;2808;51.240;6.794;2023-06-26T10:07:45;101197.00;;;28.60
5571;BMP180;2808;51.240;6.794;2023-06-26T10:10:13;101197.00;;;28.70
5571;BMP180;2808;51.240;6.794;2023-06-26T10:12:40;101198.00;;;28.80
5571;BMP180;2808;51.240;6.794;2023-06-26T10:15:11;101206.00;;;28.70
5571;BMP180;2808;51.240;6.794;2023-06-26T10:17:44;101210.00;;;28.60
5571;BMP180;2808;51.240;6.794;2023-06-26T10:20:15;101200.00;;;28.70
5571;BMP180;2808;51.240;6.794;2023-06-26T10:22:45;101199.00;;;28.70
5571;BMP180;2808;51.240;6.794;2023-06-26T10:25:16;101202.00;;;28.50
5571;BMP180;2808;51.240;6.794;2023-06-26T10:27:47;101207.00;;;28.50
5571;BMP180;2808;51.240;6.794;2023-06-26T10:30:22;101204.00;;;28.40
5571;BMP180;2808;51.240;6.794;2023-06-26T10:32:53;101206.00;;;28.50
5571;BMP180;2808;51.240;6.794;2023-06-26T10:35:21;101209.00;;;28.70
5571;BMP180;2808;51.240;6.794;2023-06-26T10:37:49;101204.00;;;28.40
5571;BMP180;2808;51.240;6.794;2023-06-26T10:40:24;101200.00;;;28.10
5571;BMP180;2808;51.240;6.794;2023-06-26T10:42:56;101213.00;;;28.00
5571;BMP180;2808;51.240;6.794;2023-06-26T10:45:34;101205.00;;;27.90
5571;BMP180;2808;51.240;6.794;2023-06-26T10:48:04;101212.00;;;27.90
5571;BMP180;2808;51.240;6.794;2023-06-26T10:50:32;101207.00;;;28.00
5571;BMP180;2808;51.240;6.794;2023-06-26T10:56:03;101214.00;;;27.90
5571;BMP180;2808;51.240;6.794;2023-06-26T10:58:34;101221.00;;;27.80
5571;BMP180;2808;51.240;6.794;2023-06-26T11:01:22;101211.00;;;27.90
5571;BMP180;2808;51.240;6.794;2023-06-26T11:04:05;101214.00;;;28.00
5571;BMP180;2808;51.240;6.794;2023-06-26T11:06:37;101227.00;;;28.00
5571;BMP180;2808;51.240;6.794;2023-06-26T11:09:14;101237.00;;;28.00
5571;BMP180;2808;51.240;6.794;2023-06-26T11:12:09;101243.00;;;27.80
5571;BMP180;2808;51.240;6.794;2023-06-26T11:14:36;101241.00;;;28.00
5571;BMP180;2808;51.240;6.794;2023-06-26T11:17:04;101237.00;;;27.90
5571;BMP180;2808;51.240;6.794;2023-06-26T11:19:33;101240.00;;;27.90
5571;BMP180;2808;51.240;6.794;2023-06-26T11:22:03;101225.00;;;28.00
5571;BMP180;2808;51.240;6.794;2023-06-26T11:24:31;101221.00;;;28.00
5571;BMP180;2808;51.240;6.794;2023-06-26T11:27:04;101240.00;;;28.10
5571;BMP180;2808;51.240;6.794;2023-06-26T11:29:32;101250.00;;;28.10
5571;BMP180;2808;51.240;6.794;2023-06-26T11:32:03;101251.00;;;28.10
5571;BMP180;2808;51.240;6.794;2023-06-26T11:34:34;101251.00;;;28.10
5571;BMP180;2808;51.240;6.794;2023-06-26T11:37:03;101256.00;;;28.10
5571;BMP180;2808;51.240;6.794;2023-06-26T11:39:32;101255.00;;;28.00
5571;BMP180;2808;51.240;6.794;2023-06-26T11:42:00;101249.00;;;28.10
5571;BMP180;2808;51.240;6.794;2023-06-26T11:44:30;101249.00;;;27.90
5571;BMP180;2808;51.240;6.794;2023-06-26T11:47:04;101248.00;;;27.90
5571;BMP180;2808;51.240;6.794;2023-06-26T11:49:33;101250.00;;;28.00
5571;BMP180;2808;51.240;6.794;2023-06-26T11:52:04;101247.00;;;28.20
5571;BMP180;2808;51.240;6.794;2023-06-26T11:54:31;101254.00;;;28.30
5571;BMP180;2808;51.240;6.794;2023-06-26T11:56:59;101266.00;;;28.20
5571;BMP180;2808;51.240;6.794;2023-06-26T11:59:35;101280.00;;;28.00
5571;BMP180;2808;51.240;6.794;2023-06-26T12:02:06;101279.00;;;27.80
5571;BMP180;2808;51.240;6.794;2023-06-26T12:04:40;101269.00;;;27.80
5571;BMP180;2808;51.240;6.794;2023-06-26T12:07:09;101268.00;;;28.00
5571;BMP180;2808;51.240;6.794;2023-06-26T12:09:41;101278.00;;;27.80
5571;BMP180;2808;51.240;6.794;2023-06-26T12:12:12;101269.00;;;27.90
5571;BMP180;2808;51.240;6.794;2023-06-26T12:14:44;101280.00;;;28.10
5571;BMP180;2808;51.240;6.794;2023-06-26T12:17:13;101273.00;;;28.10
5571;BMP180;2808;51.240;6.794;2023-06-26T12:19:46;101286.00;;;28.00
5571;BMP180;2808;51.240;6.794;2023-06-26T12:22:17;101286.00;;;28.00
5571;BMP180;2808;51.240;6.794;2023-06-26T12:24:48;101288.00;;;28.00
5571;BMP180;2808;51.240;6.794;2023-06-26T12:27:18;101298.00;;;27.60
5571;BMP180;2808;51.240;6.794;2023-06-26T12:29:55;101306.00;;;27.50
5571;BMP180;2808;51.240;6.794;2023-06-26T12:32:23;101306.00;;;27.50
5571;BMP180;2808;51.240;6.794;2023-06-26T12:34:57;101310.00;;;27.60
5571;BMP180;2808;51.240;6.794;2023-06-26T12:37:35;101318.00;;;27.90
5571;BMP180;2808;51.240;6.794;2023-06-26T12:40:04;101317.00;;;28.00
5571;BMP180;2808;51.240;6.794;2023-06-26T12:42:34;101319.00;;;27.80
5571;BMP180;2808;51.240;6.794;2023-06-26T12:45:11;101322.00;;;27.70
5571;BMP180;2808;51.240;6.794;2023-06-26T12:47:40;101320.00;;;27.80
5571;BMP180;2808;51.240;6.794;2023-06-26T12:50:12;101316.00;;;27.90
5571;BMP180;2808;51.240;6.794;2023-06-26T12:52:40;101319.00;;;27.90
5571;BMP180;2808;51.240;6.794;2023-06-26T12:55:08;101327.00;;;27.90
5571;BMP180;2808;51.240;6.794;2023-06-26T12:57:36;101314.00;;;27.80
5571;BMP180;2808;51.240;6.794;2023-06-26T13:00:08;101315.00;;;27.70
5571;BMP180;2808;51.240;6.794;2023-06-26T13:02:36;101308.00;;;27.60
5571;BMP180;2808;51.240;6.794;2023-06-26T13:05:04;101312.00;;;27.50
5571;BMP180;2808;51.240;6.794;2023-06-26T13:07:33;101308.00;;;27.20
5571;BMP180;2808;51.240;6.794;2023-06-26T13:10:00;101306.00;;;27.00
5571;BMP180;2808;51.240;6.794;2023-06-26T13:12:28;101316.00;;;27.20
5571;BMP180;2808;51.240;6.794;2023-06-26T13:14:57;101314.00;;;27.30
5571;BMP180;2808;51.240;6.794;2023-06-26T13:17:29;101310.00;;;27.20
5571;BMP180;2808;51.240;6.794;2023-06-26T13:19:58;101320.00;;;27.00
5571;BMP180;2808;51.240;6.794;2023-06-26T13:22:25;101323.00;;;27.00
5571;BMP180;2808;51.240;6.794;2023-06-26T13:24:54;101331.00;;;27.10
5571;BMP180;2808;51.240;6.794;2023-06-26T13:27:21;101331.00;;;27.10
5571;BMP180;2808;51.240;6.794;2023-06-26T13:29:49;101336.00;;;27.10
5571;BMP180;2808;51.240;6.794;2023-06-26T13:32:19;101336.00;;;27.00
5571;BMP180;2808;51.240;6.794;2023-06-26T13:34:46;101329.00;;;27.00
5571;BMP180;2808;51.240;6.794;2023-06-26T13:37:14;101339.00;;;27.00
5571;BMP180;2808;51.240;6.794;2023-06-26T13:39:42;101338.00;;;26.90
5571;BMP180;2808;51.240;6.794;2023-06-26T13:42:21;101335.00;;;26.80
5571;BMP180;2808;51.240;6.794;2023-06-26T13:44:51;101334.00;;;26.60
5571;BMP180;2808;51.240;6.794;2023-06-26T13:47:19;101345.00;;;26.50
5571;BMP180;2808;51.240;6.794;2023-06-26T13:49:47;101342.00;;;26.60
5571;BMP180;2808;51.240;6.794;2023-06-26T13:52:15;101339.00;;;26.70
5571;BMP180;2808;51.240;6.794;2023-06-26T13:54:42;101338.00;;;26.70
5571;BMP180;2808;51.240;6.794;2023-06-26T13:57:10;101333.00;;;26.70
5571;BMP180;2808;51.240;6.794;2023-06-26T13:59:39;101345.00;;;26.70
5571;BMP180;2808;51.240;6.794;2023-06-26T14:02:08;101340.00;;;26.70
5571;BMP180;2808;51.240;6.794;2023-06-26T14:04:36;101334.00;;;26.60
5571;BMP180;2808;51.240;6.794;2023-06-26T14:07:04;101338.00;;;26.50
5571;BMP180;2808;51.240;6.794;2023-06-26T14:09:31;101334.00;;;26.60
5571;BMP180;2808;51.240;6.794;2023-06-26T14:11:59;101333.00;;;26.70
5571;BMP180;2808;51.240;6.794;2023-06-26T14:14:27;101338.00;;;26.80
5571;BMP180;2808;51.240;6.794;2023-06-26T14:16:55;101345.00;;;26.90
5571;BMP180;2808;51.240;6.794;2023-06-26T14:19:25;101358.00;;;26.90
5571;BMP180;2808;51.240;6.794;2023-06-26T14:21:52;101355.00;;;26.90
5571;BMP180;2808;51.240;6.794;2023-06-26T14:24:21;101351.00;;;27.00
5571;BMP180;2808;51.240;6.794;2023-06-26T14:26:51;101348.00;;;26.90
5571;BMP180;2808;51.240;6.794;2023-06-26T14:29:20;101355.00;;;26.70
5571;BMP180;2808;51.240;6.794;2023-06-26T14:31:49;101341.00;;;26.60
5571;BMP180;2808;51.240;6.794;2023-06-26T14:34:19;101359.00;;;26.60